sensor_id;sensor_type;location;lat;lon;timestamp;P1;durP1;ratioP1;P2;durP2;ratioP2
75612;SDS011;64198;48.556;-2.934;2022-10-16T13:42:59;11.18;;;6.20;;
75612;SDS011;64198;48.556;-2.934;2022-10-16T13:45:25;4.90;;;2.40;;
75612;SDS011;64198;48.556;-2.934;2022-10-16T13:48:01;3.92;;;1.38;;
75612;SDS011;64198;48.556;-2.934;2022-10-16T13:50:31;4.15;;;1.50;;
75612;SDS011;64198;48.556;-2.934;2022-10-16T13:53:06;4.15;;;1.65;;
75612;SDS011;64198;48.556;-2.934;2022-10-16T13:55:38;4.60;;;1.70;;
75612;SDS011;64198;48.556;-2.934;2022-10-16T13:58:07;3.67;;;1.40;;
75612;SDS011;64198;48.556;-2.934;2022-10-16T14:00:34;4.07;;;1.35;;
75612;SDS011;64198;48.556;-2.934;2022-10-16T14:03:04;4.13;;;1.30;;
75612;SDS011;64198;48.556;-2.934;2022-10-16T14:05:32;2.92;;;1.20;;
75612;SDS011;64198;48.556;-2.934;2022-10-16T14:07:58;3.65;;;1.05;;
75612;SDS011;64198;48.556;-2.934;2022-10-16T14:12:56;1.70;;;1.00;;
75612;SDS011;64198;48.556;-2.934;2022-10-16T14:15:24;3.40;;;1.30;;
75612;SDS011;64198;48.556;-2.934;2022-10-16T14:17:50;5.90;;;1.40;;
75612;SDS011;64198;48.556;-2.934;2022-10-16T14:20:18;1.75;;;1.00;;
75612;SDS011;64198;48.556;-2.934;2022-10-16T14:22:46;1.85;;;0.80;;
75612;SDS011;64198;48.556;-2.934;2022-10-16T14:28:03;3.60;;;1.35;;
75612;SDS011;64198;48.556;-2.934;2022-10-16T14:30:48;2.97;;;0.90;;
75612;SDS011;64198;48.556;-2.934;2022-10-16T14:38:38;4.30;;;0.90;;
75612;SDS011;64198;48.556;-2.934;2022-10-16T14:41:05;1.88;;;0.80;;
75612;SDS011;64198;48.556;-2.934;2022-10-16T14:43:36;3.95;;;0.77;;
75612;SDS011;64198;48.556;-2.934;2022-10-16T14:46:04;3.78;;;1.10;;
75612;SDS011;64198;48.556;-2.934;2022-10-16T14:48:36;1.27;;;0.65;;
75612;SDS011;64198;48.556;-2.934;2022-10-16T14:51:19;2.88;;;0.65;;
75612;SDS011;64198;48.556;-2.934;2022-10-16T14:53:47;1.17;;;0.63;;
75612;SDS011;64198;48.556;-2.934;2022-10-16T14:56:14;0.93;;;0.60;;
75612;SDS011;64198;48.556;-2.934;2022-10-16T15:03:38;2.83;;;0.70;;
75612;SDS011;64198;48.556;-2.934;2022-10-16T15:06:08;1.00;;;0.45;;
75612;SDS011;64198;48.556;-2.934;2022-10-16T15:08:39;1.95;;;0.80;;
75612;SDS011;64198;48.556;-2.934;2022-10-16T15:11:05;0.70;;;0.50;;
75612;SDS011;64198;48.556;-2.934;2022-10-16T15:13:37;1.17;;;0.50;;
75612;SDS011;64198;48.556;-2.934;2022-10-16T15:16:03;1.70;;;0.52;;
75612;SDS011;64198;48.556;-2.934;2022-10-16T15:18:29;1.67;;;0.50;;
75612;SDS011;64198;48.556;-2.934;2022-10-16T15:20:55;1.45;;;0.50;;
75612;SDS011;64198;48.556;-2.934;2022-10-16T15:23:21;1.13;;;0.60;;
75612;SDS011;64198;48.556;-2.934;2022-10-16T15:28:16;1.30;;;0.60;;
75612;SDS011;64198;48.556;-2.934;2022-10-16T15:30:43;1.30;;;0.43;;
75612;SDS011;64198;48.556;-2.934;2022-10-16T15:33:13;1.10;;;0.50;;
75612;SDS011;64198;48.556;-2.934;2022-10-16T15:35:41;1.45;;;0.60;;
75612;SDS011;64198;48.556;-2.934;2022-10-16T15:38:10;0.80;;;0.50;;
75612;SDS011;64198;48.556;-2.934;2022-10-16T15:40:37;0.93;;;0.55;;
75612;SDS011;64198;48.556;-2.934;2022-10-16T15:43:03;1.70;;;0.60;;
75612;SDS011;64198;48.556;-2.934;2022-10-16T15:45:29;1.55;;;0.50;;
75612;SDS011;64198;48.556;-2.934;2022-10-16T15:47:55;1.38;;;0.50;;
75612;SDS011;64198;48.556;-2.934;2022-10-16T15:50:21;1.33;;;0.50;;
75612;SDS011;64198;48.556;-2.934;2022-10-16T15:52:47;0.73;;;0.50;;
75612;SDS011;64198;48.556;-2.934;2022-10-16T15:55:13;1.10;;;0.47;;
75612;SDS011;64198;48.556;-2.934;2022-10-16T15:57:40;0.60;;;0.40;;
75612;SDS011;64198;48.556;-2.934;2022-10-16T16:00:11;0.68;;;0.40;;
75612;SDS011;64198;48.556;-2.934;2022-10-16T16:02:38;0.68;;;0.50;;
75612;SDS011;64198;48.556;-2.934;2022-10-16T16:05:05;1.30;;;0.50;;
75612;SDS011;64198;48.556;-2.934;2022-10-16T16:07:36;0.57;;;0.43;;
75612;SDS011;64198;48.556;-2.934;2022-10-16T16:10:03;1.20;;;0.40;;
75612;SDS011;64198;48.556;-2.934;2022-10-16T16:12:32;0.90;;;0.40;;
75612;SDS011;64198;48.556;-2.934;2022-10-16T16:14:58;1.83;;;0.50;;
75612;SDS011;64198;48.556;-2.934;2022-10-16T16:17:24;2.60;;;0.60;;
75612;SDS011;64198;48.556;-2.934;2022-10-16T16:19:50;1.75;;;0.60;;
75612;SDS011;64198;48.556;-2.934;2022-10-16T16:22:17;1.10;;;0.50;;
75612;SDS011;64198;48.556;-2.934;2022-10-16T16:24:42;0.70;;;0.40;;
75612;SDS011;64198;48.556;-2.934;2022-10-16T16:27:09;1.83;;;0.60;;
75612;SDS011;64198;48.556;-2.934;2022-10-16T16:29:35;0.98;;;0.50;;
75612;SDS011;64198;48.556;-2.934;2022-10-16T16:32:01;1.83;;;0.60;;
75612;SDS011;64198;48.556;-2.934;2022-10-16T16:34:27;3.80;;;0.70;;
75612;SDS011;64198;48.556;-2.934;2022-10-16T16:36:54;3.67;;;0.70;;
75612;SDS011;64198;48.556;-2.934;2022-10-16T16:39:20;1.40;;;0.63;;
75612;SDS011;64198;48.556;-2.934;2022-10-16T16:41:47;1.52;;;0.70;;
75612;SDS011;64198;48.556;-2.934;2022-10-16T16:44:13;1.10;;;0.60;;
75612;SDS011;64198;48.556;-2.934;2022-10-16T16:46:39;2.78;;;0.63;;
75612;SDS011;64198;48.556;-2.934;2022-10-16T16:49:08;2.65;;;0.80;;
75612;SDS011;64198;48.556;-2.934;2022-10-16T16:51:35;1.90;;;0.85;;
75612;SDS011;64198;48.556;-2.934;2022-10-16T16:54:02;1.33;;;0.70;;
75612;SDS011;64198;48.556;-2.934;2022-10-16T16:56:28;1.13;;;0.52;;
75612;SDS011;64198;48.556;-2.934;2022-10-16T16:58:54;1.98;;;0.73;;
75612;SDS011;64198;48.556;-2.934;2022-10-16T17:01:22;2.97;;;1.40;;
75612;SDS011;64198;48.556;-2.934;2022-10-16T17:03:50;2.63;;;1.15;;
75612;SDS011;64198;48.556;-2.934;2022-10-16T17:06:18;6.53;;;1.80;;
75612;SDS011;64198;48.556;-2.934;2022-10-16T17:08:51;18.05;;;9.95;;
75612;SDS011;64198;48.556;-2.934;2022-10-16T17:11:21;15.77;;;10.43;;
75612;SDS011;64198;48.556;-2.934;2022-10-16T17:13:50;4.05;;;2.67;;
75612;SDS011;64198;48.556;-2.934;2022-10-16T17:16:17;2.72;;;2.22;;
75612;SDS011;64198;48.556;-2.934;2022-10-16T17:18:43;4.70;;;2.20;;
75612;SDS011;64198;48.556;-2.934;2022-10-16T17:21:09;5.28;;;2.30;;
75612;SDS011;64198;48.556;-2.934;2022-10-16T17:23:35;12.95;;;2.67;;
75612;SDS011;64198;48.556;-2.934;2022-10-16T17:26:05;9.20;;;3.00;;
75612;SDS011;64198;48.556;-2.934;2022-10-16T17:28:33;11.07;;;3.30;;
75612;SDS011;64198;48.556;-2.934;2022-10-16T17:31:18;8.05;;;3.75;;
75612;SDS011;64198;48.556;-2.934;2022-10-16T17:33:52;10.90;;;3.38;;
75612;SDS011;64198;48.556;-2.934;2022-10-16T17:36:19;11.60;;;3.67;;
75612;SDS011;64198;48.556;-2.934;2022-10-16T17:38:46;12.27;;;3.88;;
75612;SDS011;64198;48.556;-2.934;2022-10-16T17:41:15;11.75;;;3.72;;
75612;SDS011;64198;48.556;-2.934;2022-10-16T17:43:46;11.55;;;3.15;;
75612;SDS011;64198;48.556;-2.934;2022-10-16T17:46:13;14.30;;;3.92;;
75612;SDS011;64198;48.556;-2.934;2022-10-16T17:48:41;8.75;;;3.47;;
75612;SDS011;64198;48.556;-2.934;2022-10-16T17:51:10;11.35;;;4.43;;
75612;SDS011;64198;48.556;-2.934;2022-10-16T17:53:42;14.98;;;4.43;;
75612;SDS011;64198;48.556;-2.934;2022-10-16T17:56:09;12.50;;;3.88;;
75612;SDS011;64198;48.556;-2.934;2022-10-16T17:58:37;10.98;;;4.18;;
75612;SDS011;64198;48.556;-2.934;2022-10-16T18:01:11;13.45;;;3.42;;
75612;SDS011;64198;48.556;-2.934;2022-10-16T18:03:37;9.13;;;3.80;;
75612;SDS011;64198;48.556;-2.934;2022-10-16T18:06:03;9.75;;;3.42;;
75612;SDS011;64198;48.556;-2.934;2022-10-16T18:08:29;9.75;;;3.38;;
75612;SDS011;64198;48.556;-2.934;2022-10-16T18:10:55;5.40;;;2.70;;
75612;SDS011;64198;48.556;-2.934;2022-10-16T18:13:21;8.82;;;2.80;;
75612;SDS011;64198;48.556;-2.934;2022-10-16T18:15:46;6.60;;;2.90;;
75612;SDS011;64198;48.556;-2.934;2022-10-16T18:18:22;7.60;;;2.88;;
75612;SDS011;64198;48.556;-2.934;2022-10-16T18:20:55;15.15;;;3.10;;
75612;SDS011;64198;48.556;-2.934;2022-10-16T18:23:24;12.18;;;5.05;;
75612;SDS011;64198;48.556;-2.934;2022-10-16T18:25:51;10.15;;;4.22;;
75612;SDS011;64198;48.556;-2.934;2022-10-16T18:28:17;10.82;;;3.40;;
75612;SDS011;64198;48.556;-2.934;2022-10-16T18:30:43;7.35;;;2.95;;
75612;SDS011;64198;48.556;-2.934;2022-10-16T18:33:09;8.80;;;3.00;;
75612;SDS011;64198;48.556;-2.934;2022-10-16T18:35:35;8.02;;;3.45;;
75612;SDS011;64198;48.556;-2.934;2022-10-16T18:38:01;10.43;;;2.78;;
75612;SDS011;64198;48.556;-2.934;2022-10-16T18:40:27;5.97;;;3.25;;
75612;SDS011;64198;48.556;-2.934;2022-10-16T18:42:54;8.73;;;2.95;;
75612;SDS011;64198;48.556;-2.934;2022-10-16T18:45:20;7.18;;;2.63;;
75612;SDS011;64198;48.556;-2.934;2022-10-16T18:47:46;11.35;;;2.28;;
75612;SDS011;64198;48.556;-2.934;2022-10-16T18:50:11;5.57;;;2.22;;
75612;SDS011;64198;48.556;-2.934;2022-10-16T18:52:37;8.52;;;2.70;;
75612;SDS011;64198;48.556;-2.934;2022-10-16T18:55:04;12.35;;;4.20;;
75612;SDS011;64198;48.556;-2.934;2022-10-16T18:57:30;27.02;;;15.10;;
75612;SDS011;64198;48.556;-2.934;2022-10-16T18:59:56;20.65;;;13.13;;
75612;SDS011;64198;48.556;-2.934;2022-10-16T19:02:22;21.20;;;11.43;;
75612;SDS011;64198;48.556;-2.934;2022-10-16T19:04:48;18.25;;;9.60;;
75612;SDS011;64198;48.556;-2.934;2022-10-16T19:07:14;34.78;;;16.77;;
75612;SDS011;64198;48.556;-2.934;2022-10-16T19:09:41;25.48;;;14.85;;
75612;SDS011;64198;48.556;-2.934;2022-10-16T19:12:07;22.73;;;11.73;;
75612;SDS011;64198;48.556;-2.934;2022-10-16T19:14:34;19.88;;;10.02;;
75612;SDS011;64198;48.556;-2.934;2022-10-16T19:19:27;14.25;;;7.47;;
75612;SDS011;64198;48.556;-2.934;2022-10-16T19:21:53;17.05;;;7.97;;
75612;SDS011;64198;48.556;-2.934;2022-10-16T19:24:36;15.35;;;6.18;;
75612;SDS011;64198;48.556;-2.934;2022-10-16T19:27:03;14.15;;;6.47;;
75612;SDS011;64198;48.556;-2.934;2022-10-16T19:29:29;12.10;;;5.80;;
75612;SDS011;64198;48.556;-2.934;2022-10-16T19:31:55;10.48;;;5.20;;
75612;SDS011;64198;48.556;-2.934;2022-10-16T19:34:22;8.77;;;5.13;;
75612;SDS011;64198;48.556;-2.934;2022-10-16T19:36:47;9.50;;;5.45;;
75612;SDS011;64198;48.556;-2.934;2022-10-16T19:39:16;12.38;;;4.78;;
75612;SDS011;64198;48.556;-2.934;2022-10-16T19:41:42;8.48;;;4.63;;
75612;SDS011;64198;48.556;-2.934;2022-10-16T19:44:10;10.70;;;4.15;;
75612;SDS011;64198;48.556;-2.934;2022-10-16T19:46:38;9.73;;;4.88;;
75612;SDS011;64198;48.556;-2.934;2022-10-16T19:49:06;12.13;;;5.78;;
75612;SDS011;64198;48.556;-2.934;2022-10-16T19:51:34;13.50;;;6.60;;
75612;SDS011;64198;48.556;-2.934;2022-10-16T19:56:30;25.67;;;16.90;;
75612;SDS011;64198;48.556;-2.934;2022-10-16T19:58:57;23.00;;;15.75;;
75612;SDS011;64198;48.556;-2.934;2022-10-16T20:01:24;35.15;;;21.63;;
75612;SDS011;64198;48.556;-2.934;2022-10-16T20:03:52;32.72;;;18.65;;
75612;SDS011;64198;48.556;-2.934;2022-10-16T20:06:19;24.27;;;15.10;;
75612;SDS011;64198;48.556;-2.934;2022-10-16T20:08:46;21.73;;;12.98;;
75612;SDS011;64198;48.556;-2.934;2022-10-16T20:11:26;20.73;;;12.77;;
75612;SDS011;64198;48.556;-2.934;2022-10-16T20:13:53;17.40;;;10.85;;
75612;SDS011;64198;48.556;-2.934;2022-10-16T20:16:19;17.73;;;10.90;;
75612;SDS011;64198;48.556;-2.934;2022-10-16T20:18:46;17.75;;;10.23;;
75612;SDS011;64198;48.556;-2.934;2022-10-16T20:21:15;14.70;;;8.93;;
75612;SDS011;64198;48.556;-2.934;2022-10-16T20:23:46;17.42;;;9.57;;
75612;SDS011;64198;48.556;-2.934;2022-10-16T20:26:13;15.77;;;9.55;;
75612;SDS011;64198;48.556;-2.934;2022-10-16T20:28:40;13.85;;;7.35;;
75612;SDS011;64198;48.556;-2.934;2022-10-16T20:31:08;26.75;;;16.42;;
75612;SDS011;64198;48.556;-2.934;2022-10-16T20:33:43;16.55;;;7.97;;
75612;SDS011;64198;48.556;-2.934;2022-10-16T20:36:10;17.52;;;8.18;;
75612;SDS011;64198;48.556;-2.934;2022-10-16T20:38:37;11.52;;;7.07;;
75612;SDS011;64198;48.556;-2.934;2022-10-16T20:41:04;13.43;;;6.43;;
75612;SDS011;64198;48.556;-2.934;2022-10-16T20:43:30;18.17;;;7.70;;
75612;SDS011;64198;48.556;-2.934;2022-10-16T20:46:00;12.50;;;6.90;;
75612;SDS011;64198;48.556;-2.934;2022-10-16T20:48:28;13.43;;;6.45;;
75612;SDS011;64198;48.556;-2.934;2022-10-16T20:50:54;10.23;;;6.47;;
75612;SDS011;64198;48.556;-2.934;2022-10-16T20:53:20;16.13;;;6.05;;
75612;SDS011;64198;48.556;-2.934;2022-10-16T20:55:46;13.50;;;6.80;;
75612;SDS011;64198;48.556;-2.934;2022-10-16T20:58:12;18.77;;;8.82;;
75612;SDS011;64198;48.556;-2.934;2022-10-16T21:00:38;15.73;;;8.15;;
75612;SDS011;64198;48.556;-2.934;2022-10-16T21:03:04;15.55;;;9.98;;
75612;SDS011;64198;48.556;-2.934;2022-10-16T21:05:30;79.72;;;45.17;;
75612;SDS011;64198;48.556;-2.934;2022-10-16T21:07:58;81.43;;;45.35;;
75612;SDS011;64198;48.556;-2.934;2022-10-16T21:10:25;46.85;;;26.15;;
75612;SDS011;64198;48.556;-2.934;2022-10-16T21:12:54;57.97;;;33.53;;
75612;SDS011;64198;48.556;-2.934;2022-10-16T21:15:20;51.67;;;28.13;;
75612;SDS011;64198;48.556;-2.934;2022-10-16T21:17:46;41.05;;;21.98;;
75612;SDS011;64198;48.556;-2.934;2022-10-16T21:20:12;56.28;;;31.77;;
75612;SDS011;64198;48.556;-2.934;2022-10-16T21:22:41;47.05;;;24.48;;
75612;SDS011;64198;48.556;-2.934;2022-10-16T21:25:07;42.35;;;24.17;;
75612;SDS011;64198;48.556;-2.934;2022-10-16T21:27:39;34.55;;;18.42;;
75612;SDS011;64198;48.556;-2.934;2022-10-16T21:30:06;29.58;;;16.08;;
75612;SDS011;64198;48.556;-2.934;2022-10-16T21:32:34;26.63;;;15.57;;
75612;SDS011;64198;48.556;-2.934;2022-10-16T21:35:00;21.45;;;13.95;;
75612;SDS011;64198;48.556;-2.934;2022-10-16T21:37:26;34.45;;;20.65;;
75612;SDS011;64198;48.556;-2.934;2022-10-16T21:39:53;33.50;;;21.27;;
75612;SDS011;64198;48.556;-2.934;2022-10-16T21:42:20;32.80;;;21.05;;
75612;SDS011;64198;48.556;-2.934;2022-10-16T21:44:46;24.55;;;15.27;;
75612;SDS011;64198;48.556;-2.934;2022-10-16T21:47:11;43.97;;;27.48;;
75612;SDS011;64198;48.556;-2.934;2022-10-16T21:49:37;64.28;;;35.13;;
75612;SDS011;64198;48.556;-2.934;2022-10-16T21:52:03;114.30;;;66.90;;
75612;SDS011;64198;48.556;-2.934;2022-10-16T21:54:29;87.47;;;51.13;;
75612;SDS011;64198;48.556;-2.934;2022-10-16T21:56:55;63.78;;;37.13;;
75612;SDS011;64198;48.556;-2.934;2022-10-16T21:59:21;52.35;;;31.65;;
75612;SDS011;64198;48.556;-2.934;2022-10-16T22:01:47;47.30;;;26.02;;
75612;SDS011;64198;48.556;-2.934;2022-10-16T22:04:13;37.75;;;24.70;;
75612;SDS011;64198;48.556;-2.934;2022-10-16T22:06:40;37.25;;;22.30;;
75612;SDS011;64198;48.556;-2.934;2022-10-16T22:09:07;28.20;;;19.05;;
75612;SDS011;64198;48.556;-2.934;2022-10-16T22:11:36;27.92;;;17.67;;
75612;SDS011;64198;48.556;-2.934;2022-10-16T22:14:03;24.83;;;15.95;;
75612;SDS011;64198;48.556;-2.934;2022-10-16T22:16:30;27.02;;;17.02;;
75612;SDS011;64198;48.556;-2.934;2022-10-16T22:18:56;23.58;;;14.88;;
75612;SDS011;64198;48.556;-2.934;2022-10-16T22:21:23;25.75;;;15.90;;
75612;SDS011;64198;48.556;-2.934;2022-10-16T22:23:52;26.25;;;15.77;;
75612;SDS011;64198;48.556;-2.934;2022-10-16T22:26:18;25.83;;;16.40;;
75612;SDS011;64198;48.556;-2.934;2022-10-16T22:28:44;22.27;;;13.88;;
75612;SDS011;64198;48.556;-2.934;2022-10-16T22:31:10;24.05;;;15.40;;
75612;SDS011;64198;48.556;-2.934;2022-10-16T22:33:37;25.75;;;16.27;;
75612;SDS011;64198;48.556;-2.934;2022-10-16T22:36:05;22.40;;;14.00;;
75612;SDS011;64198;48.556;-2.934;2022-10-16T22:38:32;24.88;;;15.00;;
75612;SDS011;64198;48.556;-2.934;2022-10-16T22:41:00;23.55;;;15.60;;
75612;SDS011;64198;48.556;-2.934;2022-10-16T22:43:40;24.33;;;15.43;;
75612;SDS011;64198;48.556;-2.934;2022-10-16T22:46:09;22.55;;;13.43;;
75612;SDS011;64198;48.556;-2.934;2022-10-16T22:48:37;20.80;;;12.93;;
75612;SDS011;64198;48.556;-2.934;2022-10-16T22:51:04;22.30;;;13.15;;
75612;SDS011;64198;48.556;-2.934;2022-10-16T22:53:30;24.83;;;13.18;;
75612;SDS011;64198;48.556;-2.934;2022-10-16T22:55:56;20.35;;;12.77;;
75612;SDS011;64198;48.556;-2.934;2022-10-16T22:58:22;19.13;;;11.70;;
75612;SDS011;64198;48.556;-2.934;2022-10-16T23:00:48;17.65;;;10.98;;
75612;SDS011;64198;48.556;-2.934;2022-10-16T23:03:14;17.85;;;11.60;;
75612;SDS011;64198;48.556;-2.934;2022-10-16T23:05:40;17.95;;;10.48;;
75612;SDS011;64198;48.556;-2.934;2022-10-16T23:08:07;17.95;;;11.07;;
75612;SDS011;64198;48.556;-2.934;2022-10-16T23:10:34;16.10;;;9.43;;
75612;SDS011;64198;48.556;-2.934;2022-10-16T23:13:03;17.73;;;9.80;;
75612;SDS011;64198;48.556;-2.934;2022-10-16T23:15:29;17.50;;;10.65;;
75612;SDS011;64198;48.556;-2.934;2022-10-16T23:17:54;17.00;;;9.20;;
75612;SDS011;64198;48.556;-2.934;2022-10-16T23:20:20;18.40;;;10.02;;
75612;SDS011;64198;48.556;-2.934;2022-10-16T23:22:48;18.13;;;11.00;;
75612;SDS011;64198;48.556;-2.934;2022-10-16T23:25:14;16.20;;;8.38;;
75612;SDS011;64198;48.556;-2.934;2022-10-16T23:27:40;13.30;;;9.23;;
75612;SDS011;64198;48.556;-2.934;2022-10-16T23:30:06;15.48;;;9.52;;
75612;SDS011;64198;48.556;-2.934;2022-10-16T23:32:32;15.73;;;9.00;;
75612;SDS011;64198;48.556;-2.934;2022-10-16T23:34:58;16.02;;;8.60;;
75612;SDS011;64198;48.556;-2.934;2022-10-16T23:37:24;16.02;;;9.63;;
75612;SDS011;64198;48.556;-2.934;2022-10-16T23:39:50;16.80;;;9.93;;
75612;SDS011;64198;48.556;-2.934;2022-10-16T23:42:17;14.27;;;8.85;;
75612;SDS011;64198;48.556;-2.934;2022-10-16T23:44:43;15.52;;;8.60;;
75612;SDS011;64198;48.556;-2.934;2022-10-16T23:47:09;13.23;;;8.63;;
75612;SDS011;64198;48.556;-2.934;2022-10-16T23:49:35;19.15;;;9.30;;
75612;SDS011;64198;48.556;-2.934;2022-10-16T23:52:01;13.70;;;9.25;;
75612;SDS011;64198;48.556;-2.934;2022-10-16T23:54:26;14.85;;;10.07;;
75612;SDS011;64198;48.556;-2.934;2022-10-16T23:56:52;15.07;;;7.53;;
75612;SDS011;64198;48.556;-2.934;2022-10-16T23:59:18;16.80;;;8.10;;
